sensor_id;sensor_type;location;lat;lon;timestamp;P1;durP1;ratioP1;P2;durP2;ratioP2
17384;SDS011;8810;48.680;8.894;2022-10-04T00:00:43;7.23;;;4.27;;
17384;SDS011;8810;48.680;8.894;2022-10-04T00:03:15;7.90;;;4.73;;
17384;SDS011;8810;48.680;8.894;2022-10-04T00:05:47;9.73;;;4.33;;
17384;SDS011;8810;48.680;8.894;2022-10-04T00:08:23;8.80;;;4.87;;
17384;SDS011;8810;48.680;8.894;2022-10-04T00:11:03;9.20;;;5.37;;
17384;SDS011;8810;48.680;8.894;2022-10-04T00:13:32;7.93;;;5.10;;
17384;SDS011;8810;48.680;8.894;2022-10-04T00:16:01;8.07;;;4.47;;
17384;SDS011;8810;48.680;8.894;2022-10-04T00:18:29;5.63;;;4.00;;
17384;SDS011;8810;48.680;8.894;2022-10-04T00:21:03;5.97;;;3.67;;
17384;SDS011;8810;48.680;8.894;2022-10-04T00:23:47;7.13;;;4.03;;
17384;SDS011;8810;48.680;8.894;2022-10-04T00:29:28;5.93;;;3.63;;
17384;SDS011;8810;48.680;8.894;2022-10-04T00:34:51;6.67;;;4.40;;
17384;SDS011;8810;48.680;8.894;2022-10-04T00:37:19;8.67;;;4.30;;
17384;SDS011;8810;48.680;8.894;2022-10-04T00:39:54;7.60;;;4.70;;
17384;SDS011;8810;48.680;8.894;2022-10-04T00:42:31;6.13;;;3.57;;
17384;SDS011;8810;48.680;8.894;2022-10-04T00:45:21;5.70;;;3.37;;
17384;SDS011;8810;48.680;8.894;2022-10-04T00:51:13;6.70;;;3.80;;
17384;SDS011;8810;48.680;8.894;2022-10-04T00:53:49;7.60;;;4.23;;
17384;SDS011;8810;48.680;8.894;2022-10-04T00:56:25;6.63;;;4.27;;
17384;SDS011;8810;48.680;8.894;2022-10-04T00:59:09;5.47;;;3.80;;
17384;SDS011;8810;48.680;8.894;2022-10-04T01:01:46;7.23;;;3.87;;
17384;SDS011;8810;48.680;8.894;2022-10-04T01:04:22;8.20;;;4.53;;
17384;SDS011;8810;48.680;8.894;2022-10-04T01:06:58;6.37;;;4.13;;
17384;SDS011;8810;48.680;8.894;2022-10-04T01:09:27;8.33;;;3.90;;
17384;SDS011;8810;48.680;8.894;2022-10-04T01:11:58;6.13;;;3.50;;
17384;SDS011;8810;48.680;8.894;2022-10-04T01:14:31;6.50;;;3.50;;
17384;SDS011;8810;48.680;8.894;2022-10-04T01:17:04;8.03;;;3.43;;
17384;SDS011;8810;48.680;8.894;2022-10-04T01:19:34;4.83;;;3.33;;
17384;SDS011;8810;48.680;8.894;2022-10-04T01:22:06;6.03;;;3.00;;
17384;SDS011;8810;48.680;8.894;2022-10-04T01:24:38;5.37;;;3.20;;
17384;SDS011;8810;48.680;8.894;2022-10-04T01:30:06;4.60;;;2.93;;
17384;SDS011;8810;48.680;8.894;2022-10-04T01:32:36;5.20;;;3.40;;
17384;SDS011;8810;48.680;8.894;2022-10-04T01:35:05;5.77;;;3.00;;
17384;SDS011;8810;48.680;8.894;2022-10-04T01:37:33;4.97;;;3.13;;
17384;SDS011;8810;48.680;8.894;2022-10-04T01:40:01;3.57;;;2.70;;
17384;SDS011;8810;48.680;8.894;2022-10-04T01:42:30;6.43;;;3.13;;
17384;SDS011;8810;48.680;8.894;2022-10-04T01:45:02;5.10;;;3.10;;
17384;SDS011;8810;48.680;8.894;2022-10-04T01:47:36;4.57;;;3.20;;
17384;SDS011;8810;48.680;8.894;2022-10-04T01:50:08;6.60;;;2.90;;
17384;SDS011;8810;48.680;8.894;2022-10-04T01:52:40;6.50;;;3.13;;
17384;SDS011;8810;48.680;8.894;2022-10-04T01:55:13;7.13;;;2.83;;
17384;SDS011;8810;48.680;8.894;2022-10-04T01:57:45;3.33;;;2.87;;
17384;SDS011;8810;48.680;8.894;2022-10-04T02:00:14;3.53;;;2.80;;
17384;SDS011;8810;48.680;8.894;2022-10-04T02:02:44;5.23;;;2.83;;
17384;SDS011;8810;48.680;8.894;2022-10-04T02:05:17;3.97;;;3.10;;
17384;SDS011;8810;48.680;8.894;2022-10-04T02:07:46;5.10;;;2.90;;
17384;SDS011;8810;48.680;8.894;2022-10-04T02:10:17;4.73;;;3.07;;
17384;SDS011;8810;48.680;8.894;2022-10-04T02:12:46;3.93;;;2.87;;
17384;SDS011;8810;48.680;8.894;2022-10-04T02:15:16;3.73;;;2.60;;
17384;SDS011;8810;48.680;8.894;2022-10-04T02:17:45;3.00;;;2.50;;
17384;SDS011;8810;48.680;8.894;2022-10-04T02:20:13;3.20;;;2.67;;
17384;SDS011;8810;48.680;8.894;2022-10-04T02:22:43;5.17;;;3.23;;
17384;SDS011;8810;48.680;8.894;2022-10-04T02:25:14;5.43;;;2.80;;
17384;SDS011;8810;48.680;8.894;2022-10-04T02:27:44;3.80;;;2.60;;
17384;SDS011;8810;48.680;8.894;2022-10-04T02:30:12;3.20;;;2.73;;
17384;SDS011;8810;48.680;8.894;2022-10-04T02:32:40;5.43;;;2.70;;
17384;SDS011;8810;48.680;8.894;2022-10-04T02:35:24;4.37;;;2.83;;
17384;SDS011;8810;48.680;8.894;2022-10-04T02:37:55;4.27;;;2.67;;
17384;SDS011;8810;48.680;8.894;2022-10-04T02:40:31;5.60;;;2.60;;
17384;SDS011;8810;48.680;8.894;2022-10-04T02:43:08;4.63;;;2.57;;
17384;SDS011;8810;48.680;8.894;2022-10-04T02:45:41;3.33;;;2.40;;
17384;SDS011;8810;48.680;8.894;2022-10-04T02:48:18;6.07;;;3.10;;
17384;SDS011;8810;48.680;8.894;2022-10-04T02:50:54;3.60;;;2.50;;
17384;SDS011;8810;48.680;8.894;2022-10-04T02:53:28;3.23;;;2.60;;
17384;SDS011;8810;48.680;8.894;2022-10-04T02:56:01;4.50;;;2.60;;
17384;SDS011;8810;48.680;8.894;2022-10-04T02:58:29;3.07;;;2.33;;
17384;SDS011;8810;48.680;8.894;2022-10-04T03:00:58;4.80;;;2.70;;
17384;SDS011;8810;48.680;8.894;2022-10-04T03:03:26;3.77;;;2.60;;
17384;SDS011;8810;48.680;8.894;2022-10-04T03:05:56;4.00;;;2.83;;
17384;SDS011;8810;48.680;8.894;2022-10-04T03:08:26;4.53;;;2.80;;
17384;SDS011;8810;48.680;8.894;2022-10-04T03:10:57;12.00;;;5.30;;
17384;SDS011;8810;48.680;8.894;2022-10-04T03:13:24;8.43;;;3.40;;
17384;SDS011;8810;48.680;8.894;2022-10-04T03:15:53;7.63;;;3.60;;
17384;SDS011;8810;48.680;8.894;2022-10-04T03:18:20;5.63;;;2.87;;
17384;SDS011;8810;48.680;8.894;2022-10-04T03:20:48;3.77;;;2.70;;
17384;SDS011;8810;48.680;8.894;2022-10-04T03:23:16;4.67;;;2.47;;
17384;SDS011;8810;48.680;8.894;2022-10-04T03:25:48;3.27;;;2.53;;
17384;SDS011;8810;48.680;8.894;2022-10-04T03:28:18;4.03;;;2.87;;
17384;SDS011;8810;48.680;8.894;2022-10-04T03:30:46;3.90;;;2.70;;
17384;SDS011;8810;48.680;8.894;2022-10-04T03:33:16;4.13;;;2.60;;
17384;SDS011;8810;48.680;8.894;2022-10-04T03:35:47;5.00;;;2.80;;
17384;SDS011;8810;48.680;8.894;2022-10-04T03:38:17;3.97;;;2.80;;
17384;SDS011;8810;48.680;8.894;2022-10-04T03:40:47;4.00;;;2.60;;
17384;SDS011;8810;48.680;8.894;2022-10-04T03:43:18;5.37;;;2.67;;
17384;SDS011;8810;48.680;8.894;2022-10-04T03:45:48;4.83;;;2.70;;
17384;SDS011;8810;48.680;8.894;2022-10-04T03:48:20;3.63;;;2.63;;
17384;SDS011;8810;48.680;8.894;2022-10-04T03:50:55;4.20;;;2.80;;
17384;SDS011;8810;48.680;8.894;2022-10-04T03:53:26;4.87;;;2.77;;
17384;SDS011;8810;48.680;8.894;2022-10-04T03:55:55;5.83;;;3.10;;
17384;SDS011;8810;48.680;8.894;2022-10-04T03:58:23;2.90;;;2.40;;
17384;SDS011;8810;48.680;8.894;2022-10-04T04:00:57;4.70;;;2.90;;
17384;SDS011;8810;48.680;8.894;2022-10-04T04:03:35;4.60;;;3.30;;
17384;SDS011;8810;48.680;8.894;2022-10-04T04:06:13;5.23;;;3.00;;
17384;SDS011;8810;48.680;8.894;2022-10-04T04:08:42;4.57;;;2.87;;
17384;SDS011;8810;48.680;8.894;2022-10-04T04:11:13;5.53;;;3.07;;
17384;SDS011;8810;48.680;8.894;2022-10-04T04:13:45;6.57;;;2.87;;
17384;SDS011;8810;48.680;8.894;2022-10-04T04:16:14;6.83;;;3.40;;
17384;SDS011;8810;48.680;8.894;2022-10-04T04:18:45;4.87;;;3.20;;
17384;SDS011;8810;48.680;8.894;2022-10-04T04:21:15;6.37;;;3.63;;
17384;SDS011;8810;48.680;8.894;2022-10-04T04:23:45;5.80;;;3.00;;
17384;SDS011;8810;48.680;8.894;2022-10-04T04:26:17;4.37;;;3.10;;
17384;SDS011;8810;48.680;8.894;2022-10-04T04:28:49;4.13;;;2.90;;
17384;SDS011;8810;48.680;8.894;2022-10-04T04:31:19;4.63;;;2.90;;
17384;SDS011;8810;48.680;8.894;2022-10-04T04:33:53;5.50;;;2.67;;
17384;SDS011;8810;48.680;8.894;2022-10-04T04:36:23;3.97;;;2.77;;
17384;SDS011;8810;48.680;8.894;2022-10-04T04:38:51;6.57;;;2.60;;
17384;SDS011;8810;48.680;8.894;2022-10-04T04:41:36;4.13;;;2.93;;
17384;SDS011;8810;48.680;8.894;2022-10-04T04:44:08;3.70;;;2.60;;
17384;SDS011;8810;48.680;8.894;2022-10-04T04:46:41;4.67;;;3.40;;
17384;SDS011;8810;48.680;8.894;2022-10-04T04:49:10;5.10;;;2.90;;
17384;SDS011;8810;48.680;8.894;2022-10-04T04:51:39;4.53;;;2.87;;
17384;SDS011;8810;48.680;8.894;2022-10-04T04:54:11;5.77;;;3.27;;
17384;SDS011;8810;48.680;8.894;2022-10-04T04:56:38;5.77;;;3.30;;
17384;SDS011;8810;48.680;8.894;2022-10-04T04:59:06;4.33;;;2.83;;
17384;SDS011;8810;48.680;8.894;2022-10-04T05:01:34;5.33;;;2.87;;
17384;SDS011;8810;48.680;8.894;2022-10-04T05:04:14;5.20;;;2.90;;
17384;SDS011;8810;48.680;8.894;2022-10-04T05:06:44;3.93;;;2.93;;
17384;SDS011;8810;48.680;8.894;2022-10-04T05:09:22;8.97;;;3.00;;
17384;SDS011;8810;48.680;8.894;2022-10-04T05:11:50;6.50;;;2.97;;
17384;SDS011;8810;48.680;8.894;2022-10-04T05:14:18;6.77;;;3.10;;
17384;SDS011;8810;48.680;8.894;2022-10-04T05:16:46;4.80;;;3.60;;
17384;SDS011;8810;48.680;8.894;2022-10-04T05:19:17;6.73;;;3.20;;
17384;SDS011;8810;48.680;8.894;2022-10-04T05:21:47;5.50;;;3.40;;
17384;SDS011;8810;48.680;8.894;2022-10-04T05:24:18;7.17;;;3.10;;
17384;SDS011;8810;48.680;8.894;2022-10-04T05:26:48;6.53;;;3.50;;
17384;SDS011;8810;48.680;8.894;2022-10-04T05:29:17;7.03;;;3.30;;
17384;SDS011;8810;48.680;8.894;2022-10-04T05:31:47;5.20;;;2.90;;
17384;SDS011;8810;48.680;8.894;2022-10-04T05:34:22;4.27;;;3.20;;
17384;SDS011;8810;48.680;8.894;2022-10-04T05:36:57;5.90;;;3.27;;
17384;SDS011;8810;48.680;8.894;2022-10-04T05:39:36;4.83;;;3.27;;
17384;SDS011;8810;48.680;8.894;2022-10-04T05:42:10;6.40;;;4.23;;
17384;SDS011;8810;48.680;8.894;2022-10-04T05:44:45;6.30;;;3.67;;
17384;SDS011;8810;48.680;8.894;2022-10-04T05:47:16;5.40;;;3.87;;
17384;SDS011;8810;48.680;8.894;2022-10-04T05:49:49;5.27;;;3.67;;
17384;SDS011;8810;48.680;8.894;2022-10-04T05:52:24;6.67;;;3.87;;
17384;SDS011;8810;48.680;8.894;2022-10-04T06:01:05;7.47;;;4.77;;
17384;SDS011;8810;48.680;8.894;2022-10-04T06:03:43;8.83;;;5.17;;
17384;SDS011;8810;48.680;8.894;2022-10-04T06:06:45;11.97;;;4.63;;
17384;SDS011;8810;48.680;8.894;2022-10-04T06:09:20;7.10;;;4.17;;
17384;SDS011;8810;48.680;8.894;2022-10-04T06:12:04;4.37;;;3.60;;
17384;SDS011;8810;48.680;8.894;2022-10-04T06:14:44;7.17;;;3.33;;
17384;SDS011;8810;48.680;8.894;2022-10-04T06:20:41;7.90;;;3.50;;
17384;SDS011;8810;48.680;8.894;2022-10-04T06:23:24;6.23;;;3.47;;
17384;SDS011;8810;48.680;8.894;2022-10-04T06:25:55;9.03;;;3.13;;
17384;SDS011;8810;48.680;8.894;2022-10-04T06:28:27;6.20;;;3.70;;
17384;SDS011;8810;48.680;8.894;2022-10-04T06:31:05;8.23;;;3.93;;
17384;SDS011;8810;48.680;8.894;2022-10-04T06:33:48;6.40;;;4.00;;
17384;SDS011;8810;48.680;8.894;2022-10-04T06:36:36;7.73;;;4.47;;
17384;SDS011;8810;48.680;8.894;2022-10-04T06:39:36;8.10;;;3.43;;
17384;SDS011;8810;48.680;8.894;2022-10-04T06:42:33;9.07;;;3.87;;
17384;SDS011;8810;48.680;8.894;2022-10-04T06:45:21;7.17;;;4.00;;
17384;SDS011;8810;48.680;8.894;2022-10-04T06:48:07;6.60;;;4.47;;
17384;SDS011;8810;48.680;8.894;2022-10-04T06:50:48;10.17;;;5.27;;
17384;SDS011;8810;48.680;8.894;2022-10-04T06:53:23;8.80;;;4.37;;
17384;SDS011;8810;48.680;8.894;2022-10-04T06:59:15;8.37;;;4.00;;
17384;SDS011;8810;48.680;8.894;2022-10-04T07:01:56;11.57;;;6.60;;
17384;SDS011;8810;48.680;8.894;2022-10-04T07:04:30;16.53;;;6.50;;
17384;SDS011;8810;48.680;8.894;2022-10-04T07:07:11;10.37;;;6.07;;
17384;SDS011;8810;48.680;8.894;2022-10-04T07:10:01;12.03;;;6.37;;
17384;SDS011;8810;48.680;8.894;2022-10-04T07:12:52;11.10;;;6.23;;
17384;SDS011;8810;48.680;8.894;2022-10-04T07:15:30;10.37;;;5.63;;
17384;SDS011;8810;48.680;8.894;2022-10-04T07:18:11;10.97;;;5.43;;
17384;SDS011;8810;48.680;8.894;2022-10-04T07:20:40;11.20;;;5.90;;
17384;SDS011;8810;48.680;8.894;2022-10-04T07:23:11;10.27;;;5.03;;
17384;SDS011;8810;48.680;8.894;2022-10-04T07:25:42;9.33;;;5.07;;
17384;SDS011;8810;48.680;8.894;2022-10-04T07:28:15;8.13;;;4.93;;
17384;SDS011;8810;48.680;8.894;2022-10-04T07:31:02;12.33;;;5.03;;
17384;SDS011;8810;48.680;8.894;2022-10-04T07:33:40;9.17;;;4.83;;
17384;SDS011;8810;48.680;8.894;2022-10-04T07:36:09;7.70;;;5.00;;
17384;SDS011;8810;48.680;8.894;2022-10-04T07:38:43;10.83;;;4.87;;
17384;SDS011;8810;48.680;8.894;2022-10-04T07:41:17;10.20;;;5.30;;
17384;SDS011;8810;48.680;8.894;2022-10-04T07:43:50;5.87;;;4.30;;
17384;SDS011;8810;48.680;8.894;2022-10-04T07:49:11;6.77;;;4.70;;
17384;SDS011;8810;48.680;8.894;2022-10-04T07:51:40;8.50;;;5.00;;
17384;SDS011;8810;48.680;8.894;2022-10-04T07:54:16;7.27;;;4.97;;
17384;SDS011;8810;48.680;8.894;2022-10-04T07:56:49;9.77;;;5.00;;
17384;SDS011;8810;48.680;8.894;2022-10-04T07:59:28;7.30;;;5.03;;
17384;SDS011;8810;48.680;8.894;2022-10-04T08:02:07;8.27;;;5.70;;
17384;SDS011;8810;48.680;8.894;2022-10-04T08:04:43;10.67;;;6.10;;
17384;SDS011;8810;48.680;8.894;2022-10-04T08:07:19;11.53;;;5.90;;
17384;SDS011;8810;48.680;8.894;2022-10-04T08:09:55;14.57;;;6.57;;
17384;SDS011;8810;48.680;8.894;2022-10-04T08:12:29;8.03;;;5.43;;
17384;SDS011;8810;48.680;8.894;2022-10-04T08:15:14;9.67;;;5.60;;
17384;SDS011;8810;48.680;8.894;2022-10-04T08:17:59;9.47;;;5.60;;
17384;SDS011;8810;48.680;8.894;2022-10-04T08:20:35;10.20;;;6.00;;
17384;SDS011;8810;48.680;8.894;2022-10-04T08:23:17;8.77;;;4.90;;
17384;SDS011;8810;48.680;8.894;2022-10-04T08:25:55;12.17;;;5.50;;
17384;SDS011;8810;48.680;8.894;2022-10-04T08:28:34;8.57;;;5.40;;
17384;SDS011;8810;48.680;8.894;2022-10-04T08:31:33;11.83;;;5.87;;
17384;SDS011;8810;48.680;8.894;2022-10-04T08:34:14;9.17;;;5.27;;
17384;SDS011;8810;48.680;8.894;2022-10-04T08:36:54;7.80;;;5.20;;
17384;SDS011;8810;48.680;8.894;2022-10-04T08:39:34;7.80;;;5.03;;
17384;SDS011;8810;48.680;8.894;2022-10-04T08:48:51;6.43;;;4.50;;
17384;SDS011;8810;48.680;8.894;2022-10-04T08:55:01;10.33;;;5.13;;
17384;SDS011;8810;48.680;8.894;2022-10-04T09:06:55;9.80;;;6.37;;
17384;SDS011;8810;48.680;8.894;2022-10-04T09:09:46;12.57;;;5.23;;
17384;SDS011;8810;48.680;8.894;2022-10-04T09:12:43;11.80;;;5.53;;
17384;SDS011;8810;48.680;8.894;2022-10-04T09:15:34;7.60;;;4.23;;
17384;SDS011;8810;48.680;8.894;2022-10-04T09:18:22;8.40;;;4.17;;
17384;SDS011;8810;48.680;8.894;2022-10-04T09:21:07;7.07;;;3.43;;
17384;SDS011;8810;48.680;8.894;2022-10-04T09:26:41;5.93;;;3.13;;
17384;SDS011;8810;48.680;8.894;2022-10-04T09:29:16;9.40;;;3.50;;
17384;SDS011;8810;48.680;8.894;2022-10-04T09:31:58;7.77;;;3.20;;
17384;SDS011;8810;48.680;8.894;2022-10-04T09:34:49;7.30;;;3.00;;
17384;SDS011;8810;48.680;8.894;2022-10-04T09:37:53;5.20;;;3.13;;
17384;SDS011;8810;48.680;8.894;2022-10-04T09:40:48;7.07;;;3.10;;
17384;SDS011;8810;48.680;8.894;2022-10-04T09:43:52;8.87;;;3.17;;
17384;SDS011;8810;48.680;8.894;2022-10-04T09:46:47;5.03;;;2.70;;
17384;SDS011;8810;48.680;8.894;2022-10-04T09:49:31;7.07;;;3.07;;
17384;SDS011;8810;48.680;8.894;2022-10-04T09:52:18;5.30;;;2.80;;
17384;SDS011;8810;48.680;8.894;2022-10-04T09:55:04;6.90;;;3.20;;
17384;SDS011;8810;48.680;8.894;2022-10-04T09:57:59;4.70;;;3.20;;
17384;SDS011;8810;48.680;8.894;2022-10-04T10:00:47;5.20;;;2.83;;
17384;SDS011;8810;48.680;8.894;2022-10-04T10:03:28;5.65;;;2.65;;
17384;SDS011;8810;48.680;8.894;2022-10-04T10:06:23;5.50;;;3.17;;
17384;SDS011;8810;48.680;8.894;2022-10-04T10:09:12;5.68;;;2.65;;
17384;SDS011;8810;48.680;8.894;2022-10-04T10:12:12;4.72;;;2.50;;
17384;SDS011;8810;48.680;8.894;2022-10-04T10:15:13;5.07;;;2.60;;
17384;SDS011;8810;48.680;8.894;2022-10-04T10:17:49;4.93;;;2.60;;
17384;SDS011;8810;48.680;8.894;2022-10-04T10:20:27;7.00;;;2.33;;
17384;SDS011;8810;48.680;8.894;2022-10-04T10:29:52;5.13;;;2.20;;
17384;SDS011;8810;48.680;8.894;2022-10-04T10:32:46;4.47;;;2.10;;
17384;SDS011;8810;48.680;8.894;2022-10-04T10:35:40;4.32;;;1.95;;
17384;SDS011;8810;48.680;8.894;2022-10-04T10:38:22;4.15;;;2.17;;
17384;SDS011;8810;48.680;8.894;2022-10-04T10:44:10;3.50;;;2.05;;
17384;SDS011;8810;48.680;8.894;2022-10-04T10:46:51;4.68;;;1.77;;
17384;SDS011;8810;48.680;8.894;2022-10-04T10:49:40;4.32;;;1.80;;
17384;SDS011;8810;48.680;8.894;2022-10-04T10:59:04;4.47;;;1.70;;
17384;SDS011;8810;48.680;8.894;2022-10-04T11:04:50;4.13;;;1.63;;
17384;SDS011;8810;48.680;8.894;2022-10-04T11:07:36;4.13;;;1.88;;
17384;SDS011;8810;48.680;8.894;2022-10-04T11:13:27;2.72;;;1.83;;
17384;SDS011;8810;48.680;8.894;2022-10-04T11:19:29;5.07;;;1.85;;
17384;SDS011;8810;48.680;8.894;2022-10-04T11:25:32;7.88;;;1.70;;
17384;SDS011;8810;48.680;8.894;2022-10-04T11:28:13;3.78;;;1.65;;
17384;SDS011;8810;48.680;8.894;2022-10-04T11:31:02;8.23;;;2.50;;
17384;SDS011;8810;48.680;8.894;2022-10-04T11:34:10;2.63;;;1.40;;
17384;SDS011;8810;48.680;8.894;2022-10-04T11:36:59;3.90;;;1.55;;
17384;SDS011;8810;48.680;8.894;2022-10-04T11:40:00;4.18;;;1.73;;
17384;SDS011;8810;48.680;8.894;2022-10-04T11:42:43;2.33;;;1.33;;
17384;SDS011;8810;48.680;8.894;2022-10-04T11:45:30;2.92;;;1.65;;
17384;SDS011;8810;48.680;8.894;2022-10-04T11:48:10;2.70;;;1.40;;
17384;SDS011;8810;48.680;8.894;2022-10-04T11:50:53;1.67;;;1.20;;
17384;SDS011;8810;48.680;8.894;2022-10-04T11:53:42;3.95;;;1.35;;
17384;SDS011;8810;48.680;8.894;2022-10-04T11:56:29;4.55;;;1.40;;
17384;SDS011;8810;48.680;8.894;2022-10-04T11:59:09;3.25;;;1.40;;
17384;SDS011;8810;48.680;8.894;2022-10-04T12:01:48;2.40;;;1.25;;
17384;SDS011;8810;48.680;8.894;2022-10-04T12:07:41;3.28;;;1.40;;
17384;SDS011;8810;48.680;8.894;2022-10-04T12:10:20;2.22;;;1.35;;
17384;SDS011;8810;48.680;8.894;2022-10-04T12:22:25;1.83;;;1.23;;
17384;SDS011;8810;48.680;8.894;2022-10-04T12:25:13;2.05;;;1.35;;
17384;SDS011;8810;48.680;8.894;2022-10-04T12:28:06;1.65;;;1.10;;
17384;SDS011;8810;48.680;8.894;2022-10-04T12:31:06;4.00;;;1.20;;
17384;SDS011;8810;48.680;8.894;2022-10-04T12:33:49;2.03;;;1.17;;
17384;SDS011;8810;48.680;8.894;2022-10-04T12:36:36;2.20;;;1.20;;
17384;SDS011;8810;48.680;8.894;2022-10-04T12:39:25;2.97;;;1.20;;
17384;SDS011;8810;48.680;8.894;2022-10-04T12:42:10;2.33;;;1.45;;
17384;SDS011;8810;48.680;8.894;2022-10-04T12:50:52;4.38;;;1.10;;
17384;SDS011;8810;48.680;8.894;2022-10-04T12:53:29;2.20;;;1.10;;
17384;SDS011;8810;48.680;8.894;2022-10-04T12:56:05;4.00;;;1.10;;
17384;SDS011;8810;48.680;8.894;2022-10-04T12:58:45;1.73;;;1.30;;
17384;SDS011;8810;48.680;8.894;2022-10-04T13:01:23;2.47;;;1.40;;
17384;SDS011;8810;48.680;8.894;2022-10-04T13:09:42;2.67;;;1.10;;
17384;SDS011;8810;48.680;8.894;2022-10-04T13:12:20;1.52;;;1.02;;
17384;SDS011;8810;48.680;8.894;2022-10-04T13:15:04;2.33;;;1.00;;
17384;SDS011;8810;48.680;8.894;2022-10-04T13:17:49;2.33;;;1.30;;
17384;SDS011;8810;48.680;8.894;2022-10-04T13:20:28;2.22;;;1.20;;
17384;SDS011;8810;48.680;8.894;2022-10-04T13:23:06;2.13;;;1.00;;
17384;SDS011;8810;48.680;8.894;2022-10-04T13:25:56;1.42;;;1.02;;
17384;SDS011;8810;48.680;8.894;2022-10-04T13:28:42;1.52;;;1.10;;
17384;SDS011;8810;48.680;8.894;2022-10-04T13:31:18;3.55;;;1.30;;
17384;SDS011;8810;48.680;8.894;2022-10-04T13:33:53;2.47;;;1.20;;
17384;SDS011;8810;48.680;8.894;2022-10-04T13:36:27;2.00;;;1.00;;
17384;SDS011;8810;48.680;8.894;2022-10-04T13:39:15;3.40;;;1.30;;
17384;SDS011;8810;48.680;8.894;2022-10-04T13:42:08;1.52;;;0.90;;
17384;SDS011;8810;48.680;8.894;2022-10-04T13:45:06;1.92;;;1.20;;
17384;SDS011;8810;48.680;8.894;2022-10-04T13:47:54;2.78;;;1.40;;
17384;SDS011;8810;48.680;8.894;2022-10-04T13:50:34;1.85;;;1.05;;
17384;SDS011;8810;48.680;8.894;2022-10-04T13:53:14;2.00;;;1.30;;
17384;SDS011;8810;48.680;8.894;2022-10-04T13:56:13;1.25;;;0.95;;
17384;SDS011;8810;48.680;8.894;2022-10-04T13:59:05;1.27;;;1.17;;
17384;SDS011;8810;48.680;8.894;2022-10-04T14:02:07;3.33;;;1.13;;
17384;SDS011;8810;48.680;8.894;2022-10-04T14:10:46;2.50;;;1.10;;
17384;SDS011;8810;48.680;8.894;2022-10-04T14:19:49;2.55;;;1.17;;
17384;SDS011;8810;48.680;8.894;2022-10-04T14:22:42;5.47;;;1.23;;
17384;SDS011;8810;48.680;8.894;2022-10-04T14:28:54;3.05;;;1.30;;
17384;SDS011;8810;48.680;8.894;2022-10-04T14:34:44;1.55;;;1.10;;
17384;SDS011;8810;48.680;8.894;2022-10-04T14:37:41;2.78;;;1.10;;
17384;SDS011;8810;48.680;8.894;2022-10-04T14:40:37;5.53;;;3.42;;
17384;SDS011;8810;48.680;8.894;2022-10-04T14:46:37;2.70;;;1.20;;
17384;SDS011;8810;48.680;8.894;2022-10-04T14:49:16;1.33;;;1.00;;
17384;SDS011;8810;48.680;8.894;2022-10-04T14:51:57;3.72;;;1.30;;
17384;SDS011;8810;48.680;8.894;2022-10-04T14:54:43;2.13;;;0.95;;
17384;SDS011;8810;48.680;8.894;2022-10-04T14:57:19;1.95;;;1.13;;
17384;SDS011;8810;48.680;8.894;2022-10-04T15:00:17;3.05;;;1.17;;
17384;SDS011;8810;48.680;8.894;2022-10-04T15:02:52;1.75;;;1.20;;
17384;SDS011;8810;48.680;8.894;2022-10-04T15:05:42;2.80;;;1.00;;
17384;SDS011;8810;48.680;8.894;2022-10-04T15:11:35;1.38;;;1.08;;
17384;SDS011;8810;48.680;8.894;2022-10-04T15:14:21;1.90;;;1.10;;
17384;SDS011;8810;48.680;8.894;2022-10-04T15:17:02;1.40;;;1.10;;
17384;SDS011;8810;48.680;8.894;2022-10-04T15:19:42;1.35;;;1.23;;
17384;SDS011;8810;48.680;8.894;2022-10-04T15:22:27;4.70;;;1.20;;
17384;SDS011;8810;48.680;8.894;2022-10-04T15:25:34;1.98;;;1.17;;
17384;SDS011;8810;48.680;8.894;2022-10-04T15:28:10;2.20;;;1.15;;
17384;SDS011;8810;48.680;8.894;2022-10-04T15:30:54;4.13;;;1.30;;
17384;SDS011;8810;48.680;8.894;2022-10-04T15:33:30;3.90;;;1.45;;
17384;SDS011;8810;48.680;8.894;2022-10-04T15:36:16;2.47;;;1.42;;
17384;SDS011;8810;48.680;8.894;2022-10-04T15:39:33;2.95;;;1.50;;
17384;SDS011;8810;48.680;8.894;2022-10-04T15:42:12;5.07;;;1.52;;
17384;SDS011;8810;48.680;8.894;2022-10-04T15:47:52;3.33;;;1.40;;
17384;SDS011;8810;48.680;8.894;2022-10-04T15:50:31;3.35;;;1.42;;
17384;SDS011;8810;48.680;8.894;2022-10-04T15:53:11;3.20;;;1.40;;
17384;SDS011;8810;48.680;8.894;2022-10-04T15:56:01;1.70;;;1.25;;
17384;SDS011;8810;48.680;8.894;2022-10-04T15:58:48;2.42;;;1.38;;
17384;SDS011;8810;48.680;8.894;2022-10-04T16:01:33;5.65;;;1.55;;
17384;SDS011;8810;48.680;8.894;2022-10-04T16:07:18;2.85;;;1.55;;
17384;SDS011;8810;48.680;8.894;2022-10-04T16:10:18;4.25;;;1.33;;
17384;SDS011;8810;48.680;8.894;2022-10-04T16:18:51;3.28;;;1.42;;
17384;SDS011;8810;48.680;8.894;2022-10-04T16:21:30;2.88;;;1.27;;
17384;SDS011;8810;48.680;8.894;2022-10-04T16:27:11;5.88;;;2.28;;
17384;SDS011;8810;48.680;8.894;2022-10-04T16:29:59;3.40;;;2.00;;
17384;SDS011;8810;48.680;8.894;2022-10-04T16:32:30;9.48;;;2.50;;
17384;SDS011;8810;48.680;8.894;2022-10-04T16:35:21;3.85;;;2.10;;
17384;SDS011;8810;48.680;8.894;2022-10-04T16:37:53;3.80;;;1.85;;
17384;SDS011;8810;48.680;8.894;2022-10-04T16:40:36;3.38;;;1.95;;
17384;SDS011;8810;48.680;8.894;2022-10-04T16:43:22;2.05;;;1.60;;
17384;SDS011;8810;48.680;8.894;2022-10-04T16:46:03;2.85;;;1.73;;
17384;SDS011;8810;48.680;8.894;2022-10-04T16:48:36;6.95;;;2.40;;
17384;SDS011;8810;48.680;8.894;2022-10-04T16:51:28;2.78;;;1.40;;
17384;SDS011;8810;48.680;8.894;2022-10-04T16:57:17;12.57;;;2.25;;
17384;SDS011;8810;48.680;8.894;2022-10-04T16:59:50;7.00;;;2.10;;
17384;SDS011;8810;48.680;8.894;2022-10-04T17:02:25;5.82;;;1.70;;
17384;SDS011;8810;48.680;8.894;2022-10-04T17:14:35;4.35;;;2.30;;
17384;SDS011;8810;48.680;8.894;2022-10-04T17:17:18;3.50;;;2.05;;
17384;SDS011;8810;48.680;8.894;2022-10-04T17:19:49;3.28;;;2.05;;
17384;SDS011;8810;48.680;8.894;2022-10-04T17:22:22;3.55;;;2.25;;
17384;SDS011;8810;48.680;8.894;2022-10-04T17:24:59;3.03;;;2.23;;
17384;SDS011;8810;48.680;8.894;2022-10-04T17:27:44;4.70;;;2.20;;
17384;SDS011;8810;48.680;8.894;2022-10-04T17:30:18;6.97;;;2.60;;
17384;SDS011;8810;48.680;8.894;2022-10-04T17:38:40;6.83;;;2.27;;
17384;SDS011;8810;48.680;8.894;2022-10-04T17:41:15;4.00;;;1.77;;
17384;SDS011;8810;48.680;8.894;2022-10-04T17:44:00;2.60;;;2.00;;
17384;SDS011;8810;48.680;8.894;2022-10-04T17:46:39;2.23;;;1.90;;
17384;SDS011;8810;48.680;8.894;2022-10-04T17:49:14;10.00;;;2.60;;
17384;SDS011;8810;48.680;8.894;2022-10-04T17:52:09;8.97;;;2.73;;
17384;SDS011;8810;48.680;8.894;2022-10-04T17:54:57;5.53;;;2.30;;
17384;SDS011;8810;48.680;8.894;2022-10-04T17:57:44;6.17;;;2.73;;
17384;SDS011;8810;48.680;8.894;2022-10-04T18:00:16;7.00;;;3.20;;
17384;SDS011;8810;48.680;8.894;2022-10-04T18:03:02;7.90;;;3.33;;
17384;SDS011;8810;48.680;8.894;2022-10-04T18:05:42;7.10;;;3.23;;
17384;SDS011;8810;48.680;8.894;2022-10-04T18:08:14;7.10;;;2.73;;
17384;SDS011;8810;48.680;8.894;2022-10-04T18:10:47;4.03;;;2.90;;
17384;SDS011;8810;48.680;8.894;2022-10-04T18:13:19;5.90;;;3.27;;
17384;SDS011;8810;48.680;8.894;2022-10-04T18:15:57;8.37;;;4.20;;
17384;SDS011;8810;48.680;8.894;2022-10-04T18:18:36;7.40;;;4.37;;
17384;SDS011;8810;48.680;8.894;2022-10-04T18:21:05;7.93;;;4.50;;
17384;SDS011;8810;48.680;8.894;2022-10-04T18:23:50;10.40;;;4.70;;
17384;SDS011;8810;48.680;8.894;2022-10-04T18:26:19;10.77;;;5.60;;
17384;SDS011;8810;48.680;8.894;2022-10-04T18:28:48;9.47;;;3.43;;
17384;SDS011;8810;48.680;8.894;2022-10-04T18:31:28;6.00;;;3.47;;
17384;SDS011;8810;48.680;8.894;2022-10-04T18:34:01;10.60;;;3.67;;
17384;SDS011;8810;48.680;8.894;2022-10-04T18:36:46;6.23;;;3.73;;
17384;SDS011;8810;48.680;8.894;2022-10-04T18:39:18;13.10;;;4.20;;
17384;SDS011;8810;48.680;8.894;2022-10-04T18:44:45;6.50;;;4.73;;
17384;SDS011;8810;48.680;8.894;2022-10-04T18:47:24;10.00;;;4.20;;
17384;SDS011;8810;48.680;8.894;2022-10-04T18:49:59;6.57;;;4.23;;
17384;SDS011;8810;48.680;8.894;2022-10-04T18:52:35;4.53;;;3.83;;
17384;SDS011;8810;48.680;8.894;2022-10-04T18:55:23;5.90;;;4.20;;